Villa Ridge, Illinois
Current Conditions -  °F | °C
As of 3:35 PM on Thursday 18 Dec 2014 (Local Time) from KCIR Reporting Station
Overcast Overcast  
Wind Chill: 33°   Ceiling: 1100
Heat Index: 38°   Visibility: 7mi
Dew Point: 34°   Wind: 6mph
Humidity: 86%   Direction: 60°ENE
Pressure: 30.23"   Gusts: NA
Location:  37.16°N, 89.19°W
Report Text: KCIR 182135Z AUTO 06005KT 7SM BKN011 OVC030 03/01 A3023 RMK AO2 T00320010
Loading
Personal Weather Stations






























Interactive Weather Map New forecast layout! Learn more

10-Day Weather Forecast

Advertisements
Track Severe Weather on mobile